Hauptseite
METAR-TAF:

METAR-TAF

Flughäfen :

Dortmund, Deutschland

Flughafen Dortmund

Breite: 51-31N, Länge: 007-37E, Höhe: 127 m

Beobachtung

Neuester Wetterbericht von vor 59 Minuten, um 13:50 UTC
Wind 5 kt aus West/Südwest, variierte zwischen Süd/Südost und West
Temperatur 15°C
Luftfeuchtigkeit 63%
Luftdruck 1020 hPa
Sichtweite 10 km oder mehr
keine Wolken unter 1500 m und keine Kumulonimbus oder Gewitterwolken

METAR: EDLW 201350Z 25005KT 160V280 CAVOK 15/08 Q1020

Zeit: 16:49 (14:49 UTC)

Prognose

Neuester Wetterbericht von vor 3 Stunden und 49 Minuten, um 11:00 UTC
Gültige Prognose vom 20 um 12 UTC bis 21 um 12 UTC
Wind 7 kt aus West/Südwest
Sichtweite 10 km oder mehr
Aufgelockert bewölkt in der Höhe von 2000 ft
Übergehend zu
vom 20 um 17 UTC bis 20 um 20 UTC
Wind 7 kt aus Süd

TAF: EDLW 201100Z 2012/2112 24007KT 9999 SCT020 BECMG 2017/2020 18007KT

Wetterbeobachtungen und Prognosen von mehr als 4000 Flughäfen (METAR und TAF Bericht).

Die verfügbaren Stationen werden durch gelbe und rote Markierungen auf der Karte dargestellt.

Führen Sie die Maus auf sie, um den Namen der Station zu sehen.

Darauf klicken, um die Beobachtung von Wetterbeobachtungen und Prognosen zu sehen.

Um die Karte zu ändern : klicken Sie auf den grünen Tasten mit einem schwarzen Kreuz Zum Vergrößern, auf den grünen Button mit einem Gedankenstrich zu verkleinern, oder auf die grünen Pfeile für benachbarte Karten.


METAR-TAF: